createdAt,value
2019-04-23T00:00:17.061Z,101352.48
2019-04-23T00:03:18.723Z,101347.25
2019-04-23T00:06:28.804Z,101340.67
2019-04-23T00:09:36.843Z,101341.16
2019-04-23T00:12:44.171Z,101335.00
2019-04-23T00:15:58.708Z,101330.44
2019-04-23T00:18:56.062Z,101326.16
2019-04-23T00:22:29.659Z,101330.55
2019-04-23T00:25:55.919Z,101317.78
2019-04-23T00:29:05.382Z,101325.26
2019-04-23T00:32:10.331Z,101323.56
2019-04-23T00:35:06.387Z,101318.22
2019-04-23T00:38:18.253Z,101325.37
2019-04-23T00:41:22.763Z,101322.77
2019-04-23T00:44:32.478Z,101319.22
2019-04-23T00:50:44.735Z,101313.02
2019-04-23T00:53:38.900Z,101317.30
2019-04-23T00:56:54.532Z,101314.28
2019-04-23T01:03:05.813Z,101304.81
2019-04-23T01:06:06.490Z,101305.55
2019-04-23T01:09:10.464Z,101301.13
2019-04-23T01:12:22.798Z,101302.05
2019-04-23T01:15:25.554Z,101297.84
2019-04-23T01:18:38.041Z,101304.59
2019-04-23T01:21:22.475Z,101297.55
2019-04-23T01:24:39.987Z,101297.51
2019-04-23T01:28:28.380Z,101296.52
2019-04-23T01:31:39.487Z,101294.17
2019-04-23T01:34:38.802Z,101290.52
2019-04-23T01:37:41.240Z,101288.52
2019-04-23T01:40:45.877Z,101283.89
2019-04-23T01:43:51.668Z,101289.96
2019-04-23T01:47:00.644Z,101280.20
2019-04-23T01:53:14.352Z,101284.19
2019-04-23T01:56:21.568Z,101284.61
2019-04-23T01:59:24.539Z,101281.86
2019-04-23T02:02:35.831Z,101273.57
2019-04-23T02:05:34.877Z,101266.78
2019-04-23T02:08:41.947Z,101263.64
2019-04-23T02:14:59.385Z,101272.60
2019-04-23T02:18:07.992Z,101260.58
2019-04-23T02:21:07.611Z,101259.23
2019-04-23T02:24:11.974Z,101255.48
2019-04-23T02:27:22.395Z,101254.03
2019-04-23T02:30:55.035Z,101245.91
2019-04-23T02:36:45.130Z,101259.38
2019-04-23T02:43:06.925Z,101244.80
2019-04-23T02:46:02.425Z,101244.80
2019-04-23T02:55:21.458Z,101241.09
2019-04-23T02:58:32.820Z,101235.44
2019-04-23T03:01:25.351Z,101233.56
2019-04-23T03:04:42.227Z,101235.80
2019-04-23T03:07:45.681Z,101234.45
2019-04-23T03:10:55.609Z,101241.39
2019-04-23T03:13:53.981Z,101235.23
2019-04-23T03:20:15.217Z,101226.01
2019-04-23T03:23:42.709Z,101229.59
2019-04-23T03:26:40.787Z,101221.97
2019-04-23T03:33:04.081Z,101224.83
2019-04-23T03:38:48.243Z,101217.79
2019-04-23T03:41:53.911Z,101213.94
2019-04-23T03:45:13.952Z,101216.82
2019-04-23T03:48:05.984Z,101212.35
2019-04-23T03:51:11.621Z,101218.14
2019-04-23T03:57:30.705Z,101215.30
2019-04-23T04:01:08.837Z,101211.80
2019-04-23T04:07:51.143Z,101217.95
2019-04-23T04:10:54.457Z,101218.45
2019-04-23T04:14:12.009Z,101216.62
2019-04-23T04:20:28.962Z,101221.67
2019-04-23T04:26:37.807Z,101226.23
2019-04-23T04:29:47.212Z,101215.38
2019-04-23T04:36:29.117Z,101219.24
2019-04-23T04:39:43.131Z,101221.91
2019-04-23T04:42:44.662Z,101223.77
2019-04-23T04:46:14.911Z,101222.41
2019-04-23T04:48:56.981Z,101212.69
2019-04-23T04:52:11.354Z,101219.41
2019-04-23T04:55:03.273Z,101217.94
2019-04-23T04:58:18.064Z,101212.61
2019-04-23T05:07:34.056Z,101213.03
2019-04-23T05:10:45.840Z,101210.31
2019-04-23T05:13:58.393Z,101205.36
2019-04-23T05:16:44.503Z,101199.74
2019-04-23T05:22:59.477Z,101190.41
2019-04-23T05:25:58.837Z,101185.83
2019-04-23T05:29:14.548Z,101185.91
2019-04-23T05:32:07.610Z,101185.23
2019-04-23T05:35:26.181Z,101185.08
2019-04-23T05:38:29.191Z,101182.13
2019-04-23T05:47:39.427Z,101189.09
2019-04-23T05:50:52.355Z,101182.70
2019-04-23T05:53:47.360Z,101180.36
2019-04-23T05:56:54.110Z,101181.63
2019-04-23T05:59:54.770Z,101178.80
2019-04-23T06:03:22.339Z,101180.91
2019-04-23T06:06:11.217Z,101182.08
2019-04-23T06:12:22.888Z,101172.81
2019-04-23T06:15:29.091Z,101179.00
2019-04-23T06:18:41.830Z,101177.17
2019-04-23T06:21:44.342Z,101169.91
2019-04-23T06:24:41.094Z,101170.94
2019-04-23T06:28:09.508Z,101175.84
2019-04-23T06:34:04.476Z,101177.26
2019-04-23T06:40:13.845Z,101168.30
2019-04-23T06:43:24.358Z,101161.08
2019-04-23T06:46:34.768Z,101164.91
2019-04-23T06:49:37.667Z,101169.81
2019-04-23T06:52:31.875Z,101154.55
2019-04-23T06:55:49.536Z,101155.25
2019-04-23T06:58:50.851Z,101159.01
2019-04-23T07:02:07.998Z,101157.98
2019-04-23T07:05:03.361Z,101151.73
2019-04-23T07:08:12.087Z,101154.16
2019-04-23T07:11:23.238Z,101141.45
2019-04-23T07:14:16.369Z,101158.69
2019-04-23T07:17:18.507Z,101156.30
2019-04-23T07:20:28.675Z,101151.19
2019-04-23T07:26:41.088Z,101144.42
2019-04-23T07:36:01.850Z,101140.49
2019-04-23T07:39:27.439Z,101129.04
2019-04-23T07:46:29.714Z,101125.93
2019-04-23T07:49:27.342Z,101127.30
2019-04-23T07:52:33.749Z,101121.17
2019-04-23T07:55:41.363Z,101113.89
2019-04-23T07:58:33.247Z,101103.65
2019-04-23T08:01:51.216Z,101103.20
2019-04-23T08:07:58.756Z,101104.33
2019-04-23T08:14:08.543Z,101111.95
2019-04-23T08:17:17.569Z,101108.23
2019-04-23T08:20:30.758Z,101102.62
2019-04-23T08:23:53.301Z,101110.26
2019-04-23T08:27:04.659Z,101111.62
2019-04-23T08:30:09.824Z,101110.56
2019-04-23T08:33:17.575Z,101110.72
2019-04-23T08:36:27.807Z,101097.03
2019-04-23T08:42:58.904Z,101106.25
2019-04-23T08:45:52.824Z,101098.92
2019-04-23T08:49:06.677Z,101076.39
2019-04-23T08:52:07.161Z,101079.36
2019-04-23T08:55:10.102Z,101088.95
2019-04-23T08:58:20.552Z,101087.45
2019-04-23T09:01:50.721Z,101083.48
2019-04-23T09:04:31.293Z,101075.02
2019-04-23T09:07:55.306Z,101073.38
2019-04-23T09:10:40.934Z,101073.82
2019-04-23T09:13:54.833Z,101087.86
2019-04-23T09:16:50.975Z,101055.50
2019-04-23T09:20:15.060Z,101062.99
2019-04-23T09:22:55.110Z,101067.00
2019-04-23T09:26:03.838Z,101058.18
2019-04-23T09:29:17.224Z,101041.30
2019-04-23T09:32:25.186Z,101047.40
2019-04-23T09:35:46.082Z,101040.98
2019-04-23T09:42:38.420Z,101028.12
2019-04-23T09:45:59.843Z,101022.95
2019-04-23T09:49:13.437Z,101021.77
2019-04-23T09:52:07.231Z,101016.87
2019-04-23T09:55:15.448Z,101015.55
2019-04-23T09:58:12.202Z,101007.24
2019-04-23T10:01:27.839Z,101015.19
2019-04-23T10:04:19.439Z,101006.59
2019-04-23T10:07:25.096Z,101004.05
2019-04-23T10:10:18.601Z,101004.89
2019-04-23T10:13:24.075Z,101009.30
2019-04-23T10:16:30.911Z,101012.91
2019-04-23T10:19:35.052Z,100990.98
2019-04-23T10:22:39.549Z,100989.27
2019-04-23T10:25:43.848Z,100991.85
2019-04-23T10:28:51.911Z,100994.58
2019-04-23T10:31:57.586Z,100997.67
2019-04-23T10:35:15.069Z,100979.11
2019-04-23T10:38:12.157Z,100987.34
2019-04-23T10:41:14.087Z,100963.94
2019-04-23T10:44:41.199Z,100967.16
2019-04-23T10:52:02.569Z,100951.75
2019-04-23T10:55:15.703Z,100945.80
2019-04-23T10:58:10.282Z,100949.57
2019-04-23T11:01:19.610Z,100944.70
2019-04-23T11:04:36.022Z,100947.75
2019-04-23T11:07:32.522Z,100946.22
2019-04-23T11:10:26.269Z,100936.88
2019-04-23T11:13:38.260Z,100932.16
2019-04-23T11:19:56.962Z,100936.24
2019-04-23T11:22:51.568Z,100940.96
2019-04-23T11:26:06.839Z,100932.98
2019-04-23T11:29:15.186Z,100935.78
2019-04-23T11:41:51.349Z,100931.70
2019-04-23T11:51:26.221Z,100920.39
2019-04-23T11:53:56.134Z,100918.11
2019-04-23T11:57:22.441Z,100923.73
2019-04-23T12:00:05.942Z,100931.13
2019-04-23T12:03:19.375Z,100908.76
2019-04-23T12:13:10.551Z,100901.24
2019-04-23T12:16:12.163Z,100890.95
2019-04-23T12:19:44.289Z,100893.80
2019-04-23T12:22:21.889Z,100879.19
2019-04-23T12:25:25.121Z,100896.60
2019-04-23T12:31:38.388Z,100896.36
2019-04-23T12:34:53.045Z,100881.41
2019-04-23T12:37:53.871Z,100878.02
2019-04-23T12:41:05.039Z,100868.80
2019-04-23T12:44:08.439Z,100842.28
2019-04-23T12:47:28.168Z,100861.83
2019-04-23T12:56:40.325Z,100828.82
2019-04-23T12:59:39.667Z,100836.86
2019-04-23T13:02:44.194Z,100828.10
2019-04-23T13:05:36.091Z,100839.09
2019-04-23T13:08:54.307Z,100830.00
2019-04-23T13:12:12.515Z,100813.67
2019-04-23T13:15:11.550Z,100812.34
2019-04-23T13:18:15.096Z,100808.55
2019-04-23T13:21:41.469Z,100795.48
2019-04-23T13:24:32.856Z,100798.55
2019-04-23T13:33:50.984Z,100772.20
2019-04-23T13:36:59.842Z,100775.81
2019-04-23T13:40:09.435Z,100794.72
2019-04-23T13:43:25.223Z,100773.74
2019-04-23T13:49:27.807Z,100764.62
2019-04-23T13:55:34.894Z,100763.00
2019-04-23T13:58:50.284Z,100766.00
2019-04-23T14:01:39.932Z,100758.45
2019-04-23T14:05:18.418Z,100745.02
2019-04-23T14:08:22.505Z,100756.95
2019-04-23T14:14:52.072Z,100747.12
2019-04-23T14:17:47.117Z,100738.75
2019-04-23T14:20:44.993Z,100739.70
2019-04-23T14:24:03.453Z,100736.91
2019-04-23T14:26:50.528Z,100731.15
2019-04-23T14:30:07.282Z,100721.33
2019-04-23T14:33:15.433Z,100707.59
2019-04-23T14:36:07.562Z,100709.16
2019-04-23T14:39:18.801Z,100713.62
2019-04-23T14:42:26.422Z,100710.84
2019-04-23T14:45:44.205Z,100701.25
2019-04-23T14:48:31.338Z,100701.01
2019-04-23T14:51:44.207Z,100685.19
2019-04-23T14:55:37.937Z,100687.15
2019-04-23T14:58:12.578Z,100686.69
2019-04-23T15:04:25.212Z,100693.91
2019-04-23T15:07:23.033Z,100675.69
2019-04-23T15:10:24.819Z,100674.44
2019-04-23T15:13:28.315Z,100663.11
2019-04-23T15:16:37.958Z,100667.13
2019-04-23T15:23:10.826Z,100647.57
2019-04-23T15:27:38.568Z,100650.88
2019-04-23T15:28:41.194Z,100640.94
2019-04-23T15:32:13.070Z,100641.78
2019-04-23T15:35:23.777Z,100632.68
2019-04-23T15:41:33.257Z,100626.77
2019-04-23T15:44:23.028Z,100628.88
2019-04-23T15:47:45.534Z,100619.25
2019-04-23T15:50:43.452Z,100613.06
2019-04-23T15:53:48.535Z,100606.63
2019-04-23T15:56:57.872Z,100605.19
2019-04-23T15:59:58.806Z,100598.38
2019-04-23T16:02:37.217Z,100587.44
2019-04-23T16:05:41.315Z,100586.00
2019-04-23T16:09:06.367Z,100591.14
2019-04-23T16:12:20.403Z,100581.99
2019-04-23T16:15:21.763Z,100589.23
2019-04-23T16:18:41.204Z,100588.20
2019-04-23T16:21:58.408Z,100584.89
2019-04-23T16:25:00.977Z,100595.38
2019-04-23T16:28:02.842Z,100578.22
2019-04-23T16:31:13.009Z,100585.16
2019-04-23T16:34:27.304Z,100577.80
2019-04-23T16:37:27.398Z,100577.80
2019-04-23T16:43:42.432Z,100580.91
2019-04-23T16:46:52.549Z,100571.70
2019-04-23T16:50:03.062Z,100574.03
2019-04-23T16:53:05.027Z,100575.67
2019-04-23T16:59:13.854Z,100569.41
2019-04-23T17:02:14.935Z,100565.34
2019-04-23T17:05:24.944Z,100582.97
2019-04-23T17:11:25.284Z,100569.72
2019-04-23T17:14:38.076Z,100568.52
2019-04-23T17:17:38.249Z,100560.33
2019-04-23T17:24:15.453Z,100547.52
2019-04-23T17:27:03.749Z,100555.08
2019-04-23T17:30:06.774Z,100564.34
2019-04-23T17:33:30.690Z,100549.34
2019-04-23T17:40:03.780Z,100563.41
2019-04-23T17:43:04.025Z,100557.84
2019-04-23T17:46:18.122Z,100565.11
2019-04-23T17:49:18.742Z,100556.95
2019-04-23T17:52:26.269Z,100560.50
2019-04-23T17:55:35.839Z,100557.53
2019-04-23T17:58:34.165Z,100547.02
2019-04-23T18:01:47.360Z,100550.72
2019-04-23T18:04:56.201Z,100562.39
2019-04-23T18:11:16.026Z,100566.00
2019-04-23T18:17:17.870Z,100563.87
2019-04-23T18:20:59.279Z,100553.09
2019-04-23T18:24:23.390Z,100557.15
2019-04-23T18:31:05.884Z,100551.64
2019-04-23T18:34:08.764Z,100554.34
2019-04-23T18:37:17.940Z,100553.05
2019-04-23T18:40:23.424Z,100561.93
2019-04-23T18:43:29.662Z,100554.98
2019-04-23T18:49:41.142Z,100552.58
2019-04-23T18:52:49.822Z,100555.80
2019-04-23T18:56:58.385Z,100559.23
2019-04-23T19:05:39.831Z,100550.17
2019-04-23T19:12:24.806Z,100550.59
2019-04-23T19:15:30.823Z,100552.33
2019-04-23T19:18:35.998Z,100543.58
2019-04-23T19:22:04.345Z,100551.12
2019-04-23T19:24:40.561Z,100547.27
2019-04-23T19:27:48.890Z,100548.47
2019-04-23T19:31:05.598Z,100554.20
2019-04-23T19:34:24.764Z,100550.02
2019-04-23T19:37:43.498Z,100550.14
2019-04-23T19:40:35.147Z,100542.47
2019-04-23T19:43:33.029Z,100554.14
2019-04-23T19:46:50.594Z,100541.00
2019-04-23T19:53:03.988Z,100546.55
2019-04-23T19:56:03.975Z,100536.95
2019-04-23T19:58:56.721Z,100549.48
2019-04-23T20:02:07.742Z,100548.46
2019-04-23T20:05:10.893Z,100547.61
2019-04-23T20:08:24.753Z,100544.36
2019-04-23T20:11:30.224Z,100540.28
2019-04-23T20:17:37.992Z,100534.42
2019-04-23T20:20:45.440Z,100536.63
2019-04-23T20:26:51.631Z,100534.69
2019-04-23T20:36:30.241Z,100525.89
2019-04-23T20:39:34.923Z,100524.98
2019-04-23T20:45:46.541Z,100524.98
2019-04-23T20:49:00.859Z,100522.84
2019-04-23T20:52:01.597Z,100519.66
2019-04-23T20:58:13.880Z,100523.49
2019-04-23T21:01:31.077Z,100522.64
2019-04-23T21:04:45.303Z,100508.48
2019-04-23T21:10:44.948Z,100521.09
2019-04-23T21:14:12.174Z,100521.81
2019-04-23T21:17:00.117Z,100515.98
2019-04-23T21:23:19.279Z,100519.89
2019-04-23T21:26:07.935Z,100518.43
2019-04-23T21:29:15.241Z,100510.97
2019-04-23T21:32:35.098Z,100506.73
2019-04-23T21:36:03.181Z,100500.84
2019-04-23T21:39:13.037Z,100497.66
2019-04-23T21:42:33.115Z,100494.46
2019-04-23T21:45:42.017Z,100496.80
2019-04-23T21:48:59.150Z,100498.08
2019-04-23T21:54:49.283Z,100493.72
2019-04-23T21:58:04.564Z,100499.84
2019-04-23T22:01:21.277Z,100486.74
2019-04-23T22:04:25.074Z,100489.89
2019-04-23T22:07:25.850Z,100486.64
2019-04-23T22:10:31.946Z,100483.61
2019-04-23T22:13:51.099Z,100483.97
2019-04-23T22:20:00.559Z,100481.53
2019-04-23T22:26:07.856Z,100477.22
2019-04-23T22:32:17.422Z,100461.08
2019-04-23T22:35:21.983Z,100459.30
2019-04-23T22:38:26.039Z,100457.66
2019-04-23T22:41:36.277Z,100455.34
2019-04-23T22:44:46.869Z,100455.41
2019-04-23T22:47:47.747Z,100447.62
2019-04-23T22:51:02.323Z,100454.92
2019-04-23T22:53:58.588Z,100442.73
2019-04-23T23:03:21.431Z,100439.38
2019-04-23T23:06:36.856Z,100435.77
2019-04-23T23:09:33.241Z,100423.41
2019-04-23T23:12:44.917Z,100425.73
2019-04-23T23:15:44.977Z,100419.61
2019-04-23T23:18:50.038Z,100417.17
2019-04-23T23:25:06.701Z,100409.52
2019-04-23T23:28:11.859Z,100410.22
2019-04-23T23:31:06.520Z,100403.56
2019-04-23T23:37:39.731Z,100398.62
2019-04-23T23:40:25.547Z,100410.25
2019-04-23T23:43:29.943Z,100402.80
2019-04-23T23:46:56.282Z,100401.94
2019-04-23T23:49:43.856Z,100400.08
2019-04-23T23:52:59.698Z,100404.47
2019-04-23T23:56:10.905Z,100393.91
2019-04-23T23:59:03.916Z,100394.08
